x

Mid Gulf - 180 Nm South Of Southwest Pass, La (42001) Wave Buoy

5:50am - Sun 2nd Aug 2015 All times are UTC.

  • Sig Wave height 2.0ft
  • Peak Period 4s
  • Average Period 4s
  • Wind
    7mph, 9mph gusts
  • Sea Temp 85°f
  • Air Temp 84°f
  • Sea Pressure 1014.5mb

More Historic Weather Station data

Upgrade to MSW Pro to gain access to the past 30 days of data for over 8000 Wavebouys and Weather Stations around the globe.

Join Pro

Comparision Forecast

View Surf forecast
   
Sun 08/02 5:50am 2ft 4s 4s 7 9 mph 1014.5mb 85f 84f
4:50am 2.5ft 4s 4s 9 11 mph 1014.8mb 85f 84f
3:50am 2.5ft 4s 4s 9 11 mph 1015.1mb 85f 84f
2:50am 2.5ft 4s 4s 9 11 mph 1014.8mb 85f 84f
1:50am 2.5ft 5s 4s 11 13 mph 1014mb 85f 84f
12:50am 2.5ft 5s 4s 11 13 mph 1013.5mb 85f 85f
Sat 08/01 11:50pm 3ft 4s 4s 13 16 mph 1013.5mb 85f 85f
10:50pm 2.5ft 5s 4s 13 16 mph 1013.6mb 85f 85f
9:50pm 3ft 5s 4s 13 18 mph 1013.6mb 85f 85f
8:50pm 3.5ft 5s 4s 16 18 mph 1013.7mb 85f 85f
7:50pm 3ft 5s 4s 16 18 mph 1014.3mb 85f 85f
6:50pm 3ft 5s 4s 16 18 mph 1014.8mb 85f 85f
5:50pm 3.5ft 5s 4s 16 20 mph 1014.8mb 85f 85f
4:50pm 3ft 5s 4s 18 20 mph 1014.9mb 85f 85f
3:50pm 3ft 5s 4s 18 20 mph 1014.5mb 85f 84f
2:50pm 3ft 5s 4s 18 20 mph 1014.3mb 85f 84f
1:50pm 3ft 5s 4s 16 18 mph 1014.1mb 85f 84f
12:50pm 2.5ft 5s 4s 13 16 mph 1014.2mb 84f 84f
11:50am 2.5ft 5s 4s 13 16 mph 1013.9mb 84f 84f
10:50am 2.5ft 5s 4s 16 18 mph 1013.5mb 84f 84f
9:50am 2.5ft 5s 4s 13 16 mph 1013.2mb 84f 84f
8:50am 2.5ft 5s 4s 13
mph
1013.5mb 84f 84f
7:50am 2.5ft 5s 4s 11 13 mph 1013.5mb 84f 83f
6:50am 2.5ft 5s 4s 13 16 mph 1014.1mb 84f 83f
5:50am 2.5ft 5s 4s 13 18 mph 1014.8mb 84f 84f
4:50am 3ft 4s 4s 13 16 mph 1015mb 84f 84f
3:50am 3ft 5s 4s 11 16 mph 1014.7mb 84f 83f
2:50am 3ft 5s 4s 11 16 mph 1014.6mb 84f 83f
1:50am 3ft 5s 4s 16 18 mph 1014.1mb 84f 83f
12:50am 3.5ft 5s 4s 11 13 mph 1014mb 85f 82f
Fri 07/31 11:50pm 3ft 5s 4s 13 16 mph 1013.8mb 85f 83f
10:50pm 3.5ft 5s 4s 13 16 mph 1013.9mb 85f 81f
9:50pm 4ft 5s 4s 13 18 mph 1014.6mb 85f 78f
8:50pm 2.5ft 4s 4s 20 25 mph 1015.4mb 85f 76f
7:50pm 2.5ft 4s 4s 16 18 mph 1014.6mb 85f 85f
6:50pm 2.5ft 4s 4s 16 20 mph 1014.9mb 85f 84f
5:50pm 2ft 4s 4s 16 18 mph 1015.4mb 85f 84f
4:50pm 2ft 4s 3s 13 16 mph 1015.6mb 85f 84f
3:50pm 1.6ft 4s 3s 13 16 mph 1015.8mb 84f 84f
2:50pm 2ft 4s 4s 13 16 mph 1015.6mb 84f 83f
1:50pm 1.6ft 4s 3s 11 13 mph 1015.5mb 84f 81f
12:50pm 1.3ft 4s 3s 13 18 mph 1015.3mb 84f 82f
11:50am 1.6ft 4s 4s 11 13 mph 1015.1mb 84f 80f
10:50am 1.3ft 4s 3s 2 4 mph 1015mb 84f 78f
9:50am 1.6ft 3s 3s 25 29 mph 1014.5mb 85f 76f
8:50am 1.3ft 3s 3s 13 16 mph 1014.5mb 85f 81f
7:50am 1.3ft 3s 3s 9 11 mph 1014.5mb 85f 85f
6:50am 1.3ft 4s 3s 9
mph
1015.2mb 85f 85f
5:50am 1.3ft 4s 3s 9 11 mph 1015.7mb 85f 85f
4:50am 1.6ft 4s 4s 11 13 mph 1016mb 85f 85f
3:50am 1.6ft 4s 3s 11 13 mph 1016.7mb 85f 84f
2:50am 1.6ft 4s 3s 13 16 mph 1015.8mb 85f 85f
1:50am 1.6ft 4s 3s 11 13 mph 1015mb 85f 84f
12:50am 1.6ft 4s 3s 13 16 mph 1014.9mb 85f 84f
Thu 07/30 11:50pm 1.6ft 4s 3s 11 13 mph 1015.1mb 85f 84f
10:50pm 1.6ft 3s 3s 13 18 mph 1015.2mb 85f 84f
9:50pm 1.3ft 3s 3s 11 13 mph 1015.8mb 86f 84f
8:50pm 1.3ft 4s 3s 13 16 mph 1016mb 86f 83f
7:50pm 1.3ft 4s 3s 11 16 mph 1016.7mb 86f 83f
6:50pm 1.3ft 4s 3s 11 13 mph 1017.6mb 86f 83f
5:50pm 1.3ft 3s 3s 13 16 mph 1017.9mb 86f 81f
4:50pm 1.3ft 3s 3s 13 16 mph 1018.3mb 85f 80f
3:50pm 1.3ft 3s 3s 9 13 mph 1018.1mb 86f 83f
2:50pm 1.3ft 4s 3s 13 16 mph 1017.3mb 86f 84f
1:50pm 1.3ft 4s 3s 11 13 mph 1017.4mb 85f 85f
12:50pm 1ft 4s 3s 11 16 mph 1017.2mb 85f 83f
11:50am 1ft 4s 3s 9 11 mph 1016.4mb 86f 84f
10:50am 0.7ft  -  3s 11 13 mph 1015.9mb 86f 84f
9:50am 0.7ft  -  3s 9 11 mph 1015.6mb 86f 84f
8:50am 0.7ft  -  4s 7 9 mph 1015.8mb 86f 84f
7:50am 1ft 5s 3s 7 9 mph 1016.3mb 86f 84f
6:50am 1ft 3s 3s 7 9 mph 1016.7mb 86f 84f
5:50am 1ft 4s 3s 4 7 mph 1017.2mb 86f 84f
4:50am 1ft 4s 4s 7 9 mph 1017.6mb 86f 84f
3:50am 1ft 4s 4s 9
mph
1017.7mb 86f 84f
2:50am 1ft 3s 3s 4 7 mph 1017.2mb 86f 83f
1:50am 1ft 3s 3s 4
mph
1016.8mb 86f 83f
12:50am 1ft 3s 3s 2 4 mph 1016.9mb 86f 83f
Wed 07/29 11:50pm 1ft 3s 3s 4 7 mph 1016.7mb 86f 83f
10:50pm 1.3ft 3s 3s 7 9 mph 1016.5mb 86f 83f
9:50pm 1ft 3s 3s 7 9 mph 1017mb 86f 83f
8:50pm 1.3ft 3s 3s 9 11 mph 1017.4mb 86f 83f
7:50pm 1.3ft 3s 3s 9
mph
1018.1mb 86f 83f
6:50pm 1ft 5s 3s 7 11 mph 1018.2mb 86f 83f
5:50pm 1ft 5s 4s 11 16 mph 1018.5mb 87f 84f
4:50pm 1ft 5s 4s 2 7 mph 1018.5mb 86f 84f
3:50pm 1ft 4s 4s 4 7 mph 1018.4mb 85f 85f
2:50pm 1ft 5s 4s 4 7 mph 1018.1mb 86f 85f
1:50pm 1ft 5s 4s 7 9 mph 1017.6mb 86f 85f
12:50pm 1ft 4s 4s 7 9 mph 1017.1mb 86f 85f
11:50am 1ft 5s 4s 9 11 mph 1016.5mb 86f 85f
10:50am 1ft 4s 4s 9
mph
1015.9mb 86f 85f
9:50am 1ft 4s 4s 7 9 mph 1015.5mb 85f 85f
8:50am 1ft 5s 4s 4 7 mph 1015.7mb 86f 84f
7:50am 1ft 5s 4s 7
mph
1015.8mb 86f 85f
6:50am 1ft 4s 4s 4 7 mph 1016.2mb 86f 85f